createdAt,value
2023-03-31T00:04:59.860Z,11.40
2023-03-31T00:10:16.699Z,11.40
2023-03-31T00:15:20.144Z,11.40
2023-03-31T00:20:22.755Z,11.30
2023-03-31T00:25:24.543Z,11.20
2023-03-31T00:30:26.207Z,11.10
2023-03-31T00:35:27.935Z,11.00
2023-03-31T00:40:29.593Z,11.00
2023-03-31T00:45:31.611Z,11.00
2023-03-31T00:50:40.603Z,10.90
2023-03-31T00:55:47.203Z,10.80
2023-03-31T01:00:52.957Z,10.70
2023-03-31T01:06:03.370Z,10.80
2023-03-31T01:11:07.551Z,10.90
2023-03-31T01:16:10.169Z,10.90
2023-03-31T01:21:14.652Z,10.80
2023-03-31T01:26:55.080Z,10.70
2023-03-31T01:32:24.095Z,10.60
2023-03-31T01:37:47.510Z,10.50
2023-03-31T01:42:54.891Z,10.40
2023-03-31T01:48:18.489Z,10.20
2023-03-31T01:53:29.212Z,10.10
2023-03-31T01:58:41.660Z,10.00
2023-03-31T02:03:54.144Z,10.00
2023-03-31T02:09:02.169Z,10.00
2023-03-31T02:14:08.292Z,10.10
2023-03-31T02:19:10.797Z,10.10
2023-03-31T02:24:14.496Z,10.20
2023-03-31T02:29:16.363Z,10.20
2023-03-31T02:34:18.133Z,10.40
2023-03-31T02:39:25.428Z,10.40
2023-03-31T02:44:27.314Z,10.60
2023-03-31T02:49:29.574Z,10.70
2023-03-31T02:55:06.211Z,10.70
2023-03-31T03:00:14.776Z,10.80
2023-03-31T03:05:34.623Z,10.80
2023-03-31T03:11:01.924Z,10.80
2023-03-31T03:16:06.216Z,10.90
2023-03-31T03:21:08.102Z,11.00
2023-03-31T03:26:09.829Z,10.90
2023-03-31T03:31:11.590Z,10.90
2023-03-31T03:36:13.351Z,10.80
2023-03-31T03:41:15.308Z,10.70
2023-03-31T03:46:17.102Z,10.60
2023-03-31T03:51:18.868Z,10.50
2023-03-31T03:56:22.067Z,10.40
2023-03-31T04:01:24.240Z,10.30
2023-03-31T04:06:26.020Z,10.40
2023-03-31T04:11:28.208Z,10.40
2023-03-31T04:16:30.790Z,10.50
2023-03-31T04:21:34.936Z,10.50
2023-03-31T04:26:42.988Z,10.70
2023-03-31T04:31:45.233Z,10.80
2023-03-31T04:36:48.259Z,10.90
2023-03-31T04:41:50.290Z,11.00
2023-03-31T04:46:52.150Z,11.00
2023-03-31T04:51:53.961Z,11.00
2023-03-31T04:56:55.724Z,10.90
2023-03-31T05:01:57.668Z,10.90
2023-03-31T05:06:59.693Z,10.80
2023-03-31T05:12:01.373Z,10.80
2023-03-31T05:17:03.209Z,10.80
2023-03-31T05:22:06.128Z,10.80
2023-03-31T05:27:07.923Z,10.90
2023-03-31T05:32:10.206Z,10.90
2023-03-31T05:37:12.246Z,10.80
2023-03-31T05:42:14.018Z,10.80
2023-03-31T05:47:16.339Z,10.80
2023-03-31T05:52:18.160Z,11.00
2023-03-31T05:57:19.943Z,11.20
2023-03-31T06:02:21.872Z,11.50
2023-03-31T06:07:25.011Z,11.80
2023-03-31T06:12:26.931Z,11.90
2023-03-31T06:17:28.858Z,12.10
2023-03-31T06:22:30.673Z,12.20
2023-03-31T06:27:32.579Z,12.30
2023-03-31T06:32:34.549Z,12.20
2023-03-31T06:37:36.410Z,12.20
2023-03-31T06:42:38.217Z,12.20
2023-03-31T06:47:41.520Z,12.10
2023-03-31T06:52:43.375Z,12.20
2023-03-31T06:57:45.215Z,12.40
2023-03-31T07:02:47.067Z,12.50
2023-03-31T07:07:48.902Z,12.60
2023-03-31T07:12:50.940Z,12.70
2023-03-31T07:18:01.894Z,12.70
2023-03-31T07:23:05.855Z,12.90
2023-03-31T07:28:07.583Z,13.00
2023-03-31T07:33:10.452Z,13.00
2023-03-31T07:38:12.716Z,13.00
2023-03-31T07:43:14.399Z,13.10
2023-03-31T07:48:16.182Z,13.30
2023-03-31T07:53:17.981Z,13.50
2023-03-31T07:58:19.710Z,13.80
2023-03-31T08:03:21.538Z,13.80
2023-03-31T08:08:23.820Z,13.70
2023-03-31T08:13:25.975Z,14.00
2023-03-31T08:18:27.759Z,14.40
2023-03-31T08:23:29.652Z,14.40
2023-03-31T08:28:31.425Z,14.60
2023-03-31T08:33:33.340Z,14.90
2023-03-31T08:38:37.715Z,14.90
2023-03-31T08:43:45.258Z,14.90
2023-03-31T08:48:51.013Z,14.80
2023-03-31T08:54:03.041Z,14.60
2023-03-31T08:59:07.582Z,14.40
2023-03-31T09:04:28.232Z,14.20
2023-03-31T09:10:05.193Z,14.30
2023-03-31T09:15:14.800Z,14.40
2023-03-31T09:20:30.354Z,14.60
2023-03-31T09:25:35.121Z,14.60
2023-03-31T09:30:37.454Z,14.50
2023-03-31T09:35:39.455Z,14.30
2023-03-31T09:40:42.355Z,14.50
2023-03-31T09:45:57.764Z,14.60
2023-03-31T09:51:14.985Z,14.40
2023-03-31T09:56:33.898Z,14.30
2023-03-31T10:01:36.588Z,14.30
2023-03-31T10:06:42.276Z,14.10
2023-03-31T10:11:59.633Z,14.00
2023-03-31T10:17:06.414Z,13.90
2023-03-31T10:22:28.335Z,13.80
2023-03-31T10:27:32.842Z,13.60
2023-03-31T10:32:41.676Z,13.40
2023-03-31T10:37:43.480Z,13.30
2023-03-31T10:42:50.124Z,13.20
2023-03-31T10:47:55.610Z,13.10
2023-03-31T10:53:14.473Z,13.30
2023-03-31T10:58:29.522Z,13.30
2023-03-31T11:04:00.766Z,13.10
2023-03-31T11:09:26.060Z,13.10
2023-03-31T11:14:44.921Z,13.20
2023-03-31T11:20:24.548Z,13.20
2023-03-31T11:25:26.282Z,13.20
2023-03-31T11:30:50.939Z,13.20
2023-03-31T11:36:07.409Z,13.00
2023-03-31T11:41:17.648Z,13.00
2023-03-31T11:46:41.738Z,13.00
2023-03-31T11:52:02.077Z,13.00
2023-03-31T11:57:27.777Z,12.90
2023-03-31T12:02:54.652Z,12.90
2023-03-31T12:08:04.390Z,12.70
2023-03-31T12:13:24.368Z,12.50
2023-03-31T12:18:28.776Z,12.60
2023-03-31T12:23:40.426Z,12.90
2023-03-31T12:28:44.657Z,13.20
2023-03-31T12:34:09.226Z,13.50
2023-03-31T12:39:39.197Z,13.70
2023-03-31T12:44:56.257Z,13.80
2023-03-31T12:50:36.574Z,13.90
2023-03-31T12:55:47.686Z,13.90
2023-03-31T13:01:14.543Z,14.00
2023-03-31T13:06:28.522Z,14.50
2023-03-31T13:11:33.326Z,15.40
2023-03-31T13:16:36.879Z,16.10
2023-03-31T13:21:56.296Z,16.10
2023-03-31T13:27:29.329Z,16.30
2023-03-31T13:32:31.275Z,16.40
2023-03-31T13:38:07.215Z,16.50
2023-03-31T13:43:43.701Z,16.90
2023-03-31T13:49:10.399Z,17.00
2023-03-31T13:54:24.153Z,16.90
2023-03-31T13:59:32.279Z,16.40
2023-03-31T14:04:46.236Z,16.10
2023-03-31T14:09:52.173Z,16.40
2023-03-31T14:14:54.837Z,16.60
2023-03-31T14:20:08.400Z,16.60
2023-03-31T14:25:19.117Z,16.30
2023-03-31T14:30:31.699Z,15.70
2023-03-31T14:35:51.201Z,15.30
2023-03-31T14:40:57.516Z,15.20
2023-03-31T14:46:09.756Z,15.10
2023-03-31T14:51:14.025Z,14.10
2023-03-31T14:56:28.103Z,13.10
2023-03-31T15:01:35.737Z,12.90
2023-03-31T15:06:39.911Z,13.10
2023-03-31T15:11:41.748Z,13.60
2023-03-31T15:16:45.222Z,13.80
2023-03-31T15:21:56.215Z,13.80
2023-03-31T15:27:08.501Z,13.90
2023-03-31T15:32:18.159Z,14.10
2023-03-31T15:37:32.530Z,14.30
2023-03-31T15:42:35.911Z,14.50
2023-03-31T15:47:48.337Z,14.70
2023-03-31T15:52:55.704Z,14.60
2023-03-31T15:58:01.679Z,14.60
2023-03-31T16:03:12.601Z,15.30
2023-03-31T16:08:22.176Z,15.80
2023-03-31T16:13:24.257Z,15.60
2023-03-31T16:18:32.512Z,14.80
2023-03-31T16:23:38.760Z,14.10
2023-03-31T16:28:41.027Z,13.70
2023-03-31T16:33:54.916Z,13.50
2023-03-31T16:38:59.662Z,13.30
2023-03-31T16:44:06.193Z,13.20
2023-03-31T16:49:07.904Z,13.00
2023-03-31T16:54:09.583Z,12.90
2023-03-31T16:59:11.377Z,12.80
2023-03-31T17:04:13.590Z,12.80
2023-03-31T17:09:15.277Z,12.70
2023-03-31T17:14:17.139Z,12.70
2023-03-31T17:19:18.914Z,12.70
2023-03-31T17:24:22.285Z,12.50
2023-03-31T17:29:24.701Z,12.40
2023-03-31T17:34:26.464Z,12.30
2023-03-31T17:39:28.243Z,12.20
2023-03-31T17:44:30.488Z,12.20
2023-03-31T17:49:32.957Z,12.20
2023-03-31T17:54:34.620Z,12.20
2023-03-31T17:59:37.726Z,12.20
2023-03-31T18:04:40.837Z,12.20
2023-03-31T18:09:42.639Z,12.20
2023-03-31T18:14:44.561Z,12.20
2023-03-31T18:19:46.398Z,12.20
2023-03-31T18:24:48.865Z,12.10
2023-03-31T18:29:50.577Z,12.10
2023-03-31T18:34:52.462Z,12.10
2023-03-31T18:39:54.202Z,12.00
2023-03-31T18:44:56.037Z,12.00
2023-03-31T18:49:57.753Z,12.10
2023-03-31T18:54:59.532Z,12.00
2023-03-31T19:00:01.931Z,12.00
2023-03-31T19:05:03.830Z,11.90
2023-03-31T19:10:06.332Z,11.90
2023-03-31T19:15:09.173Z,11.70
2023-03-31T19:20:17.268Z,11.60
2023-03-31T19:25:20.581Z,11.50
2023-03-31T19:30:25.002Z,11.40
2023-03-31T19:35:29.333Z,11.30
2023-03-31T19:40:31.437Z,11.20
2023-03-31T19:45:36.626Z,11.20
2023-03-31T19:50:38.956Z,11.30
2023-03-31T19:55:43.019Z,11.20
2023-03-31T20:00:45.131Z,11.20
2023-03-31T20:05:47.204Z,11.20
2023-03-31T20:10:49.791Z,11.30
2023-03-31T20:15:59.881Z,11.30
2023-03-31T20:21:05.979Z,11.30
2023-03-31T20:26:10.052Z,11.40
2023-03-31T20:31:13.311Z,11.30
2023-03-31T20:36:17.700Z,11.40
2023-03-31T20:41:26.510Z,11.30
2023-03-31T20:46:29.596Z,11.10
2023-03-31T20:51:33.560Z,11.10
2023-03-31T20:56:42.508Z,11.20
2023-03-31T21:01:47.879Z,11.20
2023-03-31T21:06:49.883Z,11.10
2023-03-31T21:11:51.930Z,11.20
2023-03-31T21:16:53.811Z,11.20
2023-03-31T21:21:55.826Z,11.20
2023-03-31T21:26:57.695Z,11.20
2023-03-31T21:32:00.581Z,11.20
2023-03-31T21:37:02.585Z,11.20
2023-03-31T21:42:04.641Z,11.20
2023-03-31T21:47:07.994Z,11.20
2023-03-31T21:52:10.343Z,11.20
2023-03-31T21:57:12.668Z,11.20
2023-03-31T22:02:14.540Z,11.20
2023-03-31T22:07:16.631Z,11.20
2023-03-31T22:12:18.568Z,11.10
2023-03-31T22:17:20.986Z,11.10
2023-03-31T22:22:23.033Z,11.10
2023-03-31T22:27:24.950Z,11.00
2023-03-31T22:32:26.855Z,11.00
2023-03-31T22:37:28.748Z,10.90
2023-03-31T22:42:30.716Z,10.80
2023-03-31T22:47:32.605Z,10.80
2023-03-31T22:52:34.366Z,10.80
2023-03-31T22:57:36.153Z,10.80
2023-03-31T23:02:37.890Z,10.70
2023-03-31T23:07:39.677Z,10.70
2023-03-31T23:12:41.451Z,10.70
2023-03-31T23:17:43.296Z,10.60
2023-03-31T23:22:45.004Z,10.60
2023-03-31T23:27:47.719Z,10.60
2023-03-31T23:32:49.419Z,10.60
2023-03-31T23:37:51.161Z,10.70
2023-03-31T23:42:52.927Z,10.70
2023-03-31T23:47:54.672Z,10.70
2023-03-31T23:52:59.299Z,10.70
2023-03-31T23:58:01.023Z,10.70
